Wilberforce, OH (45384)

3:08 AM EDT on September 22, 2014 (GMT -0400)
RMR - Xenia | Change Station
CLOSE
Current Station
Personal Weather Station
Location: Xenia, OH
Elevation: 974 ft
Nearby Weather Stations

Elev 974 ft 39.68 °N, 83.90 °W | Updated 2 minutes ago

Partly Cloudy
Partly Cloudy
51.5 °F
Feels Like 51.5 °F
N
2.0
Wind Variable Wind from WNW
Gusts 10.0 mph

Today
High -- | Low -- °F
--% Chance of Precip.
Yesterday
High -- | Low -- °F
Precip. -- in
7:23 AM 7:32 PM
Waning Crescent, 4% visible
Pressure 30.05 in
Visibility 10.0 miles
Clouds Clear
Dew Point 48 °F
Humidity 88%
Rainfall 0.00 in
Snow Depth Not available.
UV 0 out of 12
Pollen 3.00 out of 12
Ozone Good
PM2.5 Good
Flu Activity Not available.
METAR KSGH 220656Z AUTO 32008KT 10SM CLR 11/09 A3006 RMK AO2 T01050088 SLP176

More Conditions Fewer Conditions

Pressure 30.05 in
Visibility 10.0 miles
Clouds Clear
Dew Point 48 °F
Humidity 88%
Rainfall 0.00 in
Snow Depth Not available.
UV 0 out of 12
Pollen 3.00 out of 12
Ozone Good
PM2.5 Good
Flu Activity Not available.
METAR KSGH 220656Z AUTO 32008KT 10SM CLR 11/09 A3006 RMK AO2 T01050088 SLP176

More Conditions Fewer Conditions

10-Day Weather Forecast

Almanac

Astronomy

Sep. 22, 2014 Rise Set
Actual Time 7:23 AM EDT 7:32 PM EDT
Civil Twilight 6:56 AM EDT 7:59 PM EDT
Nautical Twilight 6:24 AM EDT 8:30 PM EDT
Astronomical Twilight 5:52 AM EDT 9:02 PM EDT
Moon 5:51 AM EDT 6:39 PM EDT
Length of Visible Light 13h 03m
Length of Day
12h 09m
Tomorrow will be 2m 36s shorter.
Waning Crescent, 4% of the Moon is Illuminated
Today
Waning Crescent
Sep 24
New
Oct 1
First Quarter
Oct 8
Full
Oct 15
Last Quarter

Today's Extremes

State Highs State Lows

Community

WunderPhotos

Upload Photos

1,755,392 photos uploaded!

Nearby

Air Quality

  Air Quality AQ Index Pollutant
Yesterday Good
PM2.5
Yesterday Good
OZONE
Current Good
PM2.5
Current Good
OZONE
Monday Good
OZONE
Monday Good
PM2.5
Tuesday Moderate
PM2.5
Tuesday Good
OZONE

Snow Depth

Station Depth Elevation
No new snow has been reported.

Earthquake Activity

City Distance Mag. Time & Date
No recent earthquake activity has been reported nearby.
Minimum magnitude displayed is 2.5.

Coastal Water Temperatures

Place Temperature
No Stations Reporting

Nearby Weather Stations